Flight Track Log - Related Links

Times and Time Zones

All times are in EDT time to prevent confusion due to time zone crossing. See the NKS416 flight status page for this flight to view local times or setup timezone preferences in your user account.

Time Position Orientation Groundspeed Altitude Reporting Facility
EDT Latitude Longitude Course Direction KTS MPH feet Rate Location/Type
Fri 10:44:35 PM 26.0750 -80.1367 56° Northeast 204 235 800  Level Miami Center
Fri 10:45:17 PM 26.0778 -80.1044 85° East 147 169 2,000 1,806 Climbing Miami Center
Fri 10:46:18 PM 26.0958 -80.0356 74° East 260 299 3,900 2,380 Climbing Miami Center
Fri 10:47:18 PM 26.1289 -79.9578 65° Northeast 284 327 6,800 2,763 Climbing Miami Center
Fri 10:47:34 PM 26.1356 -79.9439 62° Northeast 283 326 7,400 2,720 Climbing Miami Center
Fri 10:48:33 PM 26.1728 -79.8639 63° Northeast 303 349 10,200 2,186 Climbing Miami Center
Fri 10:49:32 PM 26.2208 -79.7608 63° Northeast 320 368 11,700 2,118 Climbing Miami Center
Fri 10:50:00 PM 26.3177 -79.5538 56° Northeast  Level FlightAware Approximate
Fri 10:50:32 PM 26.2667 -79.6556 64° Northeast 351 404 14,400  Level Miami Center
Fri 10:51:32 PM 26.3247 -79.5642 55° Northeast 384 442 16,600 1,775 Climbing Miami Center
Fri 10:57:48 PM 26.9758 -79.1660 24° Northeast 450 518 27,300 1,663 Climbing FlightAware ADS-B
Fri 10:58:27 PM 27.0524 -79.1279 24° Northeast 455 524 28,100 1,200 Climbing FlightAware ADS-B
Fri 10:59:08 PM 27.1324 -79.0882 24° Northeast 461 531 28,900 750 Climbing FlightAware ADS-B
Fri 10:59:39 PM 27.1863 -79.0613 24° Northeast 461 531 29,000 197 Climbing FlightAware ADS-B
Fri 11:00:09 PM 27.2514 -79.0288 24° Northeast 461 531 29,100 590 Climbing FlightAware ADS-B
Fri 11:00:40 PM 27.3067 -79.0011 24° Northeast 464 534 29,600 984 Climbing FlightAware ADS-B
Fri 11:01:10 PM 27.3700 -78.9709 20° North 464 534 30,100 1,385 Climbing FlightAware ADS-B
Fri 11:01:45 PM 27.4427 -78.9469 12° North 454 522 31,100 1,391 Climbing FlightAware ADS-B
Fri 11:02:19 PM 27.5118 -78.9337 North 449 517 31,700 1,182 Climbing FlightAware ADS-B
Fri 11:02:51 PM 27.5788 -78.9244 North 449 517 32,400 1,417 Climbing FlightAware ADS-B
Fri 11:03:31 PM 27.6605 -78.9127 North 443 510 33,400 1,575 Climbing FlightAware ADS-B
Fri 11:04:11 PM 27.7420 -78.9013 North 434 499 34,500 1,800 Climbing FlightAware ADS-B
Fri 11:04:51 PM 27.7697 -78.8974 North 419 482 35,800 1,556 Climbing FlightAware ADS-B
Fri 11:05:32 PM 27.8982 -78.8794 North 415 478 36,600 1,000 Climbing FlightAware ADS-B
Fri 11:06:03 PM 27.9502 -78.8723 North 416 479 37,000 375 Climbing FlightAware ADS-B
Fri 11:06:36 PM 28.0170 -78.8628 North 413 475 37,000  Level FlightAware ADS-B
Fri 11:07:15 PM 28.0911 -78.8523 North 412 474 37,000  Level FlightAware ADS-B
Fri 11:07:47 PM 28.1527 -78.8435 North 412 474 37,000  Level FlightAware ADS-B
Fri 11:08:18 PM 28.2132 -78.8348 North 410 472 37,000  Level FlightAware ADS-B
Fri 11:08:59 PM 28.2899 -78.8241 North 407 468 37,000  Level FlightAware ADS-B
Fri 11:09:48 PM 28.3829 -78.8110 North 406 467 37,000  Level FlightAware ADS-B
Fri 11:10:27 PM 28.4523 -78.8010 North 406 467 37,000  Level FlightAware ADS-B
Fri 11:13:55 PM 28.8459 -78.7449 North 408 470 37,000  Level FlightAware ADS-B
Fri 11:15:26 PM 29.0162 -78.7205 North 408 470 37,000  Level FlightAware ADS-B
Sat 12:10:59 AM 35.2108 -78.0555 355° North 403 464 37,000  Level FlightAware ADS-B
Sat 12:11:00 AM 35.1859 -77.8532 North  Level FlightAware Approximate
Sat 12:11:36 AM 35.2973 -78.0643 355° North 404 465 37,000  Level FlightAware ADS-B
Sat 12:12:16 AM 35.3693 -78.0718 354° North 404 465 37,000  Level FlightAware ADS-B
Sat 12:12:56 AM 35.4465 -78.0801 355° North 404 465 37,000  Level FlightAware ADS-B
Sat 12:13:38 AM 35.5254 -78.0880 355° North 404 465 37,000  Level FlightAware ADS-B
Sat 12:14:18 AM 35.5995 -78.0956 355° North 403 464 37,000  Level FlightAware ADS-B
Sat 12:14:59 AM 35.6683 -78.1028 355° North 403 464 37,000  Level FlightAware ADS-B
Sat 12:15:39 AM 35.7395 -78.1101 355° North 405 466 37,000  Level FlightAware ADS-B
Sat 12:16:19 AM 35.8187 -78.1182 355° North 404 465 37,000  Level FlightAware ADS-B
Sat 12:16:56 AM 35.8926 -78.1259 355° North 405 466 37,000  Level FlightAware ADS-B
Sat 12:32:34 AM 37.6773 -78.3165 355° North 419 482 37,000  Level FlightAware ADS-B (KCHO)
Sat 12:33:33 AM 37.7917 -78.3290 355° North 417 480 37,000  Level FlightAware ADS-B (KCHO)
Sat 12:34:03 AM 37.8385 -78.3343 355° North 416 479 37,000  Level FlightAware ADS-B (KCHO)
Sat 12:35:02 AM 37.9627 -78.3481 355° North 416 479 37,000  Level FlightAware ADS-B (KCHO)
Sat 12:35:33 AM 38.0164 -78.3539 355° North 416 479 37,000  Level FlightAware ADS-B (KCHO)
Sat 12:36:03 AM 38.0766 -78.3603 355° North 415 478 37,000  Level FlightAware ADS-B (KCHO)
Sat 12:36:36 AM 38.1418 -78.3675 355° North 413 475 37,000 -16 Level FlightAware ADS-B (KCHO)
Sat 01:01:23 AM 40.9914 -78.6964 355° North 423 487 36,600 -47 Descending FlightAware ADS-B (CYYZ)
Sat 01:02:13 AM 41.0987 -78.7084 355° North 414 476 35,800 -975 Descending FlightAware ADS-B (CYYZ)
Sat 01:02:43 AM 41.1570 -78.7160 355° North 411 473 35,300 -1,020 Descending FlightAware ADS-B (CYYZ)
Sat 01:03:53 AM 41.2860 -78.7323 355° North 417 480 34,100 -1,020 Descending FlightAware ADS-B (CYYZ)
Sat 01:04:23 AM 41.3483 -78.7397 355° North 416 479 33,600 -1,000 Descending FlightAware ADS-B (CYYZ)
Sat 01:04:53 AM 41.4042 -78.7462 355° North 418 481 33,100 -1,000 Descending FlightAware ADS-B (CYYZ)
Sat 01:05:23 AM 41.4629 -78.7534 355° North 421 484 32,600 -1,000 Descending FlightAware ADS-B (CYYZ)
Sat 01:05:53 AM 41.5205 -78.7605 355° North 419 482 32,100 -984 Descending FlightAware ADS-B (CYYZ)
Sat 01:06:24 AM 41.5778 -78.7675 355° North 416 479 31,600 -1,000 Descending FlightAware ADS-B (CYYZ)
Sat 01:06:53 AM 41.6366 -78.7747 355° North 416 479 31,100 -1,017 Descending FlightAware ADS-B (CYYZ)
Sat 01:07:23 AM 41.6922 -78.7816 355° North 412 474 30,600 -1,000 Descending FlightAware ADS-B (CYYZ)
Sat 01:07:53 AM 41.7500 -78.7888 355° North 408 470 30,100 -1,000 Descending FlightAware ADS-B (CYYZ)
Sat 01:08:23 AM 41.8063 -78.7957 355° North 407 468 29,600 -1,100 Descending FlightAware ADS-B (CYYZ)
Sat 01:08:53 AM 41.8618 -78.8026 355° North 402 463 29,000 -1,770 Descending FlightAware ADS-B (CYYZ)
Sat 01:09:24 AM 41.9185 -78.8095 355° North 397 457 27,800 -2,500 Descending FlightAware ADS-B (CYYZ)
Sat 01:09:53 AM 41.9717 -78.8162 355° North 397 457 26,500 -2,441 Descending FlightAware ADS-B (CYYZ)
Sat 01:10:23 AM 42.0270 -78.8230 355° North 390 449 25,400 -2,800 Descending FlightAware ADS-B (CYYZ)
Sat 01:10:53 AM 42.0801 -78.8300 355° North 402 463 23,700 -2,900 Descending FlightAware ADS-B (CYYZ)
Sat 01:11:23 AM 42.1362 -78.8367 356° North 396 456 22,500 -3,000 Descending FlightAware ADS-B (CYYZ)
Sat 01:11:53 AM 42.1900 -78.8431 355° North 394 453 20,700 -3,800 Descending FlightAware ADS-B (CYYZ)
Sat 01:12:23 AM 42.2461 -78.8501 355° North 401 461 18,700 -3,934 Descending FlightAware ADS-B (CYYZ)
Sat 01:12:54 AM 42.3017 -78.8574 355° North 405 466 16,700 -3,900 Descending FlightAware ADS-B (CYYZ)
Sat 01:13:23 AM 42.3560 -78.8628 North 414 476 14,800 -3,846 Descending FlightAware ADS-B (CYYZ)
Sat 01:13:33 AM 42.3761 -78.8582 15° North 424 488 14,200 -3,150 Descending FlightAware ADS-B (CYYZ)
Sat 01:14:03 AM 42.4307 -78.8338 19° North 409 471 12,700 -2,900 Descending FlightAware ADS-B (CYYZ)
Sat 01:14:33 AM 42.4840 -78.8086 19° North 394 453 11,300 -1,869 Descending FlightAware ADS-B (CYYZ)
Sat 01:15:04 AM 42.5332 -78.7840 20° North 363 418 10,800 -700 Descending FlightAware ADS-B (CYYZ)
Sat 01:15:33 AM 42.5769 -78.7617 20° North 326 375 10,600 -814 Descending FlightAware ADS-B (CYYZ)
Sat 01:16:03 AM 42.6182 -78.7406 20° North 315 362 10,000 -1,067 Descending FlightAware ADS-B (CYYZ)
Sat 01:16:18 AM 42.6385 -78.7303 20° North 307 353 9,800 -1,161 Descending FlightAware ADS-B (CYYZ)
Sat 01:16:34 AM 42.6589 -78.7200 20° North 305 351 9,400 -1,800 Descending FlightAware ADS-B (CYYZ)
Sat 01:16:48 AM 42.6780 -78.7105 20° North 309 356 8,900 -1,862 Descending FlightAware ADS-B (CYYZ)
Sat 01:17:03 AM 42.6986 -78.7001 20° North 312 359 8,500 -1,400 Descending FlightAware ADS-B (CYYZ)
Sat 01:17:18 AM 42.7189 -78.6899 20° North 307 353 8,200 -1,600 Descending FlightAware ADS-B (CYYZ)
Sat 01:17:33 AM 42.7371 -78.6806 21° North 309 356 7,700 -1,600 Descending FlightAware ADS-B (CYYZ)
Sat 01:17:48 AM 42.7587 -78.6693 21° North 308 354 7,400 -1,200 Descending FlightAware ADS-B (CYYZ)
Sat 01:18:03 AM 42.7778 -78.6594 20° North 299 344 7,100 -1,600 Descending FlightAware ADS-B (CYYZ)
Sat 01:18:18 AM 42.7977 -78.6494 19° North 299 344 6,600 -1,574 Descending FlightAware ADS-B (CYYZ)
Sat 01:19:04 AM 42.8521 -78.6233 19° North 303 349 5,500 -1,569 Descending FlightAware ADS-B (CYYZ)
Sat 01:19:23 AM 42.8836 -78.6095 17° North 300 345 4,900 -1,355 Descending FlightAware ADS-B (CYYZ)
Sat 01:19:35 AM 42.8992 -78.6029 17° North 294 338 4,800 -565 Descending FlightAware ADS-B (CYYZ)
Sat 01:20:48 AM 42.9833 -78.5907 353° North 257 296 4,100 -316 Descending FlightAware ADS-B (CYYZ)
Sat 01:21:48 AM 43.0524 -78.6078 334° Northwest 201 231 4,100  Level FlightAware ADS-B (CYYZ)
Sat 01:22:08 AM 43.0686 -78.6207 330° Northwest 200 230 4,100  Level FlightAware ADS-B (CYYZ)
Sat 01:22:27 AM 43.0818 -78.6316 328° Northwest 203 234 4,100 -573 Level FlightAware ADS-B (CYYZ)
Sat 01:27:22 AM 43.1094 -78.8967 334° Northwest 135 155 1,100 -610 Descending Cleveland Center
Sat 01:28:00 AM 43.1076 -78.9458 334° Northwest  Level Estimated
Sat 01:29:00 AM 43.1076 -78.9458 334° Northwest  Level Estimated
Sat 01:30:00 AM 43.1076 -78.9458 334° Northwest  Level Estimated
Sat 01:31:00 AM 43.1076 -78.9458 334° Northwest  Level Estimated
Sat 01:32:00 AM 43.1076 -78.9458 334° Northwest  Level Estimated

Login

Don't have an account? Register now (free) for customized features, flight alerts, and more!